Thursday, June 29, 2017, 9:23 AM CDT
Back to Local

KMDW, Chicago Midway Airport

Location: Chicago, IL, United States Lat: 41.783
Local Time: 9:23 AM CDT (14:23 GMT) Lon: -87.75
Time Zone: US/Central Elev: 620 ft

Show me the last for .
Show Decoded

2017-06-29 08:53 METAR KMDW 291353Z 23013KT 10SM FEW030 SCT200 BKN250 24/16 A2979 RMK AO2 SLP076
                 T02390161 =
2017-06-29 07:53 METAR KMDW 291253Z 22011KT 10SM FEW120 SCT200 BKN250 24/17 A2978 RMK AO2 SLP074
                 T02390172 =
2017-06-29 06:53 METAR KMDW 291153Z 22010KT 10SM FEW120 SCT200 BKN250 23/18 A2978 RMK AO2 SLP074
                 70024 T02280178 10233 20200 53016 =
2017-06-29 05:53 METAR KMDW 291053Z 23009KT 10SM FEW080 FEW120 BKN200 BKN250 23/18 A2976 RMK AO2
                 SLP070 T02280178 =
2017-06-29 04:53 METAR KMDW 290953Z 18010KT 10SM SCT140 OVC250 23/18 A2973 RMK AO2 SLP058
                 T02280183 =
2017-06-29 03:53 METAR KMDW 290853Z 18007KT 10SM BKN210 OVC250 23/18 A2973 RMK AO2 SLP058
                 T02280178 58023 =
2017-06-29 02:53 METAR KMDW 290753Z 17008KT 10SM FEW150 BKN250 23/18 A2976 RMK AO2 SLP069
                 T02280178 =
2017-06-29 01:53 METAR KMDW 290653Z 14009KT 10SM FEW038 BKN140 OVC250 21/18 A2979 RMK AO2 SLP079
                 T02110178 =
2017-06-29 00:53 METAR KMDW 290553Z 12011KT 10SM FEW038 BKN075 OVC100 21/18 A2980 RMK AO2 LTG
                 DSNT NE TSB04E31 PRESFR SLP085 60003 T02110183 10267 20206 402830172 58001 =
2017-06-29 00:32 METAR KMDW 290532Z 08010KT 10SM FEW021 SCT038 OVC050 21/18 A2982 RMK AO2 LTG
                 DSNT NE TSB04E31 T02060183 =
2017-06-29 00:05 METAR KMDW 290505Z 02010KT 10SM TS BKN050CB OVC070 22/19 A2983 RMK AO2 LTG DSNT
                 NW-NE TSB04 OCNL LTGICCC VC NW-NE TS VC W-NW MOV E T02170189 =
2017-06-28 23:53 METAR KMDW 290453Z 04007KT 10SM BKN055 OVC070 22/18 A2982 RMK AO2 LTG DSNT NW-NE
                 RAE26 SLP092 OCNL LTGICCC DSNT W-N CB DSNT W-N P0000 T02220183 =
2017-06-28 22:53 METAR KMDW 290353Z 19008KT 10SM -RA SCT070 SCT090 BKN110 OVC160 24/18 A2980 RMK
                 AO2 PK WND 20026/0258 LTG DSNT N AND NW RAE26B37 TSE26 SLP084 P0003 T02390178 =
2017-06-28 22:28 METAR KMDW 290328Z 20011KT 10SM SCT060CB BKN100 BKN160 OVC250 24/18 A2982 RMK
                 AO2 PK WND 20026/0258 LTG DSNT NW-E RAE26 TSE26 OCNL LTGICCG DSNT SW AND NW-N CB
                 DSNT NW-N P0002 T02390178 =
2017-06-28 21:53 METAR KMDW 290253Z 19018G27KT 10SM -TSRA FEW050CB SCT100 BKN160 OVC250 26/16
                 A2980 RMK AO2 PK WND 20028/0242 LTG DSNT SW-N RAB53 TSB47 SLP084 FRQ LTGICCG VC
                 SW AND DSNT NW-N TS VC SW MOV E CB DSNT NW-N P0000 60000 T02610161 53008 =
2017-06-28 20:53 METAR KMDW 290153Z 19017G25KT 10SM FEW050 FEW095 SCT130 BKN250 26/17 A2977 RMK
                 AO2 SLP072 OCNL LTGIC DSNT NW-N CB DSNT NW-N T02610167 =
2017-06-28 19:53 METAR KMDW 290053Z 18013G21KT 10SM FEW050 SCT140 BKN250 27/17 A2977 RMK AO2
                 SLP071 TCU DSNT E-S T02670167 =
2017-06-28 18:53 METAR KMDW 282353Z 19013G22KT 10SM FEW050 BKN110 BKN200 26/17 A2978 RMK AO2 LTG
                 DSNT N AND NE RAE10 SLP077 P0000 60002 T02560167 10283 20194 58015 =
2017-06-28 17:53 METAR KMDW 282253Z 20013G25KT 10SM -RA FEW055 BKN100 BKN120 OVC200 24/17 A2978
                 RMK AO2 PK WND 21027/2214 RAB09 SLP077 CB DSNT NE P0002 T02440172 =
2017-06-28 16:53 METAR KMDW 282153Z 20020G28KT 10SM FEW050 SCT075 BKN150 OVC250 27/15 A2984 RMK
                 AO2 PK WND 20031/2132 LTG DSNT N RAB49E53 SLP096 FRQ LTGICCG DSNT N-NE CB DSNT
                 N-NE P0000 T02720150 =
2017-06-28 15:53 METAR KMDW 282053Z 18018G23KT 10SM FEW050 SCT120 BKN180 OVC250 27/16 A2983 RMK
                 AO2 PK WND 17030/2039 SLP092 60000 T02720156 56031 =
2017-06-28 14:53 METAR KMDW 281953Z 18018G25KT 10SM FEW037 SCT070 BKN120 OVC200 25/16 A2985 RMK
                 AO2 PK WND 18027/1941 RAB15E51 SLP101 P0000 T02500161 =
2017-06-28 13:53 METAR KMDW 281853Z 18013G22KT 10SM FEW045 SCT120 BKN200 OVC250 22/16 A2989 RMK
                 AO2 RAB11E21 SLP115 P0000 T02220161 =
2017-06-28 12:53 METAR KMDW 281753Z 16013G20KT 10SM FEW045 SCT080 OVC110 19/16 A2992 RMK AO2
                 RAE53 SLP126 P0012 60019 T01940156 10217 20183 58022 =
2017-06-28 11:53 METAR KMDW 281653Z 19008KT 8SM -RA FEW050 BKN100 OVC120 19/14 A3000 RMK AO2
                 SLP153 P0007 T01890144 =
2017-06-28 10:53 METAR KMDW 281553Z 20011KT 10SM -RA OVC070 21/13 A3001 RMK AO2 LTG DSNT SW AND W
                 RAB24 SLP155 P0000 T02060128 =
2017-06-28 09:53 METAR KMDW 281453Z 19013G19KT 10SM BKN070 BKN100 BKN180 OVC250 21/11 A2999 RMK
                 AO2 SLP147 T02110111 50002 =

Support USWX by starting your Amazon purchase here.